sensor_id;sensor_type;location;lat;lon;timestamp;P1;durP1;ratioP1;P2;durP2;ratioP2
3000;SDS011;1510;51.072;6.678;2024-02-14T00:01:58;23.87;;;22.57;;
3000;SDS011;1510;51.072;6.678;2024-02-14T00:04:24;25.70;;;24.03;;
3000;SDS011;1510;51.072;6.678;2024-02-14T00:06:51;22.87;;;21.57;;
3000;SDS011;1510;51.072;6.678;2024-02-14T00:09:18;17.97;;;16.90;;
3000;SDS011;1510;51.072;6.678;2024-02-14T00:11:45;14.27;;;12.87;;
3000;SDS011;1510;51.072;6.678;2024-02-14T00:14:13;21.03;;;19.90;;
3000;SDS011;1510;51.072;6.678;2024-02-14T00:16:40;31.43;;;29.33;;
3000;SDS011;1510;51.072;6.678;2024-02-14T00:19:07;32.40;;;29.63;;
3000;SDS011;1510;51.072;6.678;2024-02-14T00:21:34;30.67;;;28.37;;
3000;SDS011;1510;51.072;6.678;2024-02-14T00:24:01;39.97;;;37.77;;
3000;SDS011;1510;51.072;6.678;2024-02-14T00:26:28;40.47;;;38.37;;
3000;SDS011;1510;51.072;6.678;2024-02-14T00:28:55;33.83;;;32.17;;
3000;SDS011;1510;51.072;6.678;2024-02-14T00:31:23;39.63;;;37.90;;
3000;SDS011;1510;51.072;6.678;2024-02-14T00:33:50;31.67;;;29.97;;
3000;SDS011;1510;51.072;6.678;2024-02-14T00:36:17;54.63;;;52.07;;
3000;SDS011;1510;51.072;6.678;2024-02-14T00:38:43;60.57;;;58.10;;
3000;SDS011;1510;51.072;6.678;2024-02-14T00:41:10;35.40;;;33.60;;
3000;SDS011;1510;51.072;6.678;2024-02-14T00:43:37;27.47;;;25.97;;
3000;SDS011;1510;51.072;6.678;2024-02-14T00:46:04;38.47;;;36.47;;
3000;SDS011;1510;51.072;6.678;2024-02-14T00:48:33;57.70;;;54.83;;
3000;SDS011;1510;51.072;6.678;2024-02-14T00:51:00;53.30;;;51.07;;
3000;SDS011;1510;51.072;6.678;2024-02-14T00:53:27;79.50;;;76.20;;
3000;SDS011;1510;51.072;6.678;2024-02-14T00:55:54;65.47;;;62.87;;
3000;SDS011;1510;51.072;6.678;2024-02-14T00:58:21;68.83;;;66.20;;
3000;SDS011;1510;51.072;6.678;2024-02-14T01:00:48;57.37;;;55.23;;
3000;SDS011;1510;51.072;6.678;2024-02-14T01:03:14;81.53;;;78.53;;
3000;SDS011;1510;51.072;6.678;2024-02-14T01:05:43;78.30;;;75.30;;
3000;SDS011;1510;51.072;6.678;2024-02-14T01:08:10;107.40;;;103.53;;
3000;SDS011;1510;51.072;6.678;2024-02-14T01:10:38;173.77;;;168.00;;
3000;SDS011;1510;51.072;6.678;2024-02-14T01:13:04;165.53;;;160.10;;
3000;SDS011;1510;51.072;6.678;2024-02-14T01:15:31;176.33;;;170.77;;
3000;SDS011;1510;51.072;6.678;2024-02-14T01:17:59;136.57;;;131.83;;
3000;SDS011;1510;51.072;6.678;2024-02-14T01:20:26;171.03;;;165.53;;
3000;SDS011;1510;51.072;6.678;2024-02-14T01:22:54;242.60;;;235.07;;
3000;SDS011;1510;51.072;6.678;2024-02-14T01:25:21;264.60;;;256.03;;
3000;SDS011;1510;51.072;6.678;2024-02-14T01:27:47;219.10;;;212.33;;
3000;SDS011;1510;51.072;6.678;2024-02-14T01:30:14;244.90;;;237.13;;
3000;SDS011;1510;51.072;6.678;2024-02-14T01:32:41;170.53;;;164.93;;
3000;SDS011;1510;51.072;6.678;2024-02-14T01:35:08;146.47;;;141.67;;
3000;SDS011;1510;51.072;6.678;2024-02-14T01:37:35;130.70;;;126.23;;
3000;SDS011;1510;51.072;6.678;2024-02-14T01:40:04;84.47;;;81.43;;
3000;SDS011;1510;51.072;6.678;2024-02-14T01:42:32;99.47;;;95.97;;
3000;SDS011;1510;51.072;6.678;2024-02-14T01:44:59;73.17;;;70.37;;
3000;SDS011;1510;51.072;6.678;2024-02-14T01:47:28;87.30;;;84.13;;
3000;SDS011;1510;51.072;6.678;2024-02-14T01:49:57;82.70;;;79.43;;
3000;SDS011;1510;51.072;6.678;2024-02-14T01:52:24;78.63;;;75.90;;
3000;SDS011;1510;51.072;6.678;2024-02-14T01:54:51;84.70;;;81.70;;
3000;SDS011;1510;51.072;6.678;2024-02-14T01:57:21;88.43;;;85.37;;
3000;SDS011;1510;51.072;6.678;2024-02-14T01:59:49;107.00;;;103.40;;
3000;SDS011;1510;51.072;6.678;2024-02-14T02:02:19;88.60;;;85.33;;
3000;SDS011;1510;51.072;6.678;2024-02-14T02:04:46;73.47;;;70.77;;
3000;SDS011;1510;51.072;6.678;2024-02-14T02:07:13;73.27;;;70.67;;
3000;SDS011;1510;51.072;6.678;2024-02-14T02:09:40;66.43;;;64.00;;
3000;SDS011;1510;51.072;6.678;2024-02-14T02:12:07;62.93;;;60.63;;
3000;SDS011;1510;51.072;6.678;2024-02-14T02:14:35;57.83;;;55.60;;
3000;SDS011;1510;51.072;6.678;2024-02-14T02:17:02;54.07;;;51.97;;
3000;SDS011;1510;51.072;6.678;2024-02-14T02:19:32;60.33;;;57.93;;
3000;SDS011;1510;51.072;6.678;2024-02-14T02:21:59;58.37;;;55.87;;
3000;SDS011;1510;51.072;6.678;2024-02-14T02:24:27;56.70;;;54.50;;
3000;SDS011;1510;51.072;6.678;2024-02-14T02:26:54;52.30;;;50.20;;
3000;SDS011;1510;51.072;6.678;2024-02-14T02:29:21;60.17;;;57.87;;
3000;SDS011;1510;51.072;6.678;2024-02-14T02:31:48;58.40;;;56.20;;
3000;SDS011;1510;51.072;6.678;2024-02-14T02:34:15;62.30;;;59.80;;
3000;SDS011;1510;51.072;6.678;2024-02-14T02:36:43;62.00;;;59.50;;
3000;SDS011;1510;51.072;6.678;2024-02-14T02:39:11;70.40;;;67.70;;
3000;SDS011;1510;51.072;6.678;2024-02-14T02:41:40;65.37;;;62.70;;
3000;SDS011;1510;51.072;6.678;2024-02-14T02:44:07;66.97;;;64.37;;
3000;SDS011;1510;51.072;6.678;2024-02-14T02:46:33;61.87;;;59.47;;
3000;SDS011;1510;51.072;6.678;2024-02-14T02:49:00;66.10;;;63.50;;
3000;SDS011;1510;51.072;6.678;2024-02-14T02:51:27;71.33;;;68.53;;
3000;SDS011;1510;51.072;6.678;2024-02-14T02:53:55;71.00;;;68.10;;
3000;SDS011;1510;51.072;6.678;2024-02-14T02:56:22;80.83;;;77.63;;
3000;SDS011;1510;51.072;6.678;2024-02-14T02:58:53;93.13;;;89.33;;
3000;SDS011;1510;51.072;6.678;2024-02-14T03:01:20;103.37;;;99.47;;
3000;SDS011;1510;51.072;6.678;2024-02-14T03:03:49;109.20;;;105.53;;
3000;SDS011;1510;51.072;6.678;2024-02-14T03:06:15;113.67;;;109.67;;
3000;SDS011;1510;51.072;6.678;2024-02-14T03:08:42;119.03;;;115.00;;
3000;SDS011;1510;51.072;6.678;2024-02-14T03:11:09;124.20;;;120.07;;
3000;SDS011;1510;51.072;6.678;2024-02-14T03:13:36;122.93;;;118.83;;
3000;SDS011;1510;51.072;6.678;2024-02-14T03:16:07;123.17;;;118.97;;
3000;SDS011;1510;51.072;6.678;2024-02-14T03:18:34;126.27;;;122.07;;
3000;SDS011;1510;51.072;6.678;2024-02-14T03:21:00;130.87;;;126.47;;
3000;SDS011;1510;51.072;6.678;2024-02-14T03:23:27;172.20;;;166.53;;
3000;SDS011;1510;51.072;6.678;2024-02-14T03:25:54;188.40;;;182.30;;
3000;SDS011;1510;51.072;6.678;2024-02-14T03:28:21;228.87;;;221.40;;
3000;SDS011;1510;51.072;6.678;2024-02-14T03:30:47;237.63;;;229.87;;
3000;SDS011;1510;51.072;6.678;2024-02-14T03:33:15;271.03;;;262.27;;
3000;SDS011;1510;51.072;6.678;2024-02-14T03:35:42;256.17;;;247.97;;
3000;SDS011;1510;51.072;6.678;2024-02-14T03:38:10;259.63;;;251.23;;
3000;SDS011;1510;51.072;6.678;2024-02-14T03:40:37;269.33;;;260.23;;
3000;SDS011;1510;51.072;6.678;2024-02-14T03:43:03;300.63;;;290.53;;
3000;SDS011;1510;51.072;6.678;2024-02-14T03:45:30;326.30;;;315.23;;
3000;SDS011;1510;51.072;6.678;2024-02-14T03:47:57;321.03;;;309.13;;
3000;SDS011;1510;51.072;6.678;2024-02-14T03:50:25;334.60;;;323.10;;
3000;SDS011;1510;51.072;6.678;2024-02-14T03:52:52;361.63;;;348.73;;
3000;SDS011;1510;51.072;6.678;2024-02-14T03:55:20;359.80;;;347.03;;
3000;SDS011;1510;51.072;6.678;2024-02-14T03:57:48;351.87;;;339.50;;
3000;SDS011;1510;51.072;6.678;2024-02-14T04:00:16;356.93;;;344.47;;
3000;SDS011;1510;51.072;6.678;2024-02-14T04:02:43;385.97;;;371.97;;
3000;SDS011;1510;51.072;6.678;2024-02-14T04:05:10;396.03;;;381.27;;
3000;SDS011;1510;51.072;6.678;2024-02-14T04:07:38;431.83;;;415.37;;
3000;SDS011;1510;51.072;6.678;2024-02-14T04:10:05;445.00;;;427.67;;
3000;SDS011;1510;51.072;6.678;2024-02-14T04:12:34;436.80;;;419.63;;
3000;SDS011;1510;51.072;6.678;2024-02-14T04:15:00;463.30;;;444.70;;
3000;SDS011;1510;51.072;6.678;2024-02-14T04:17:28;498.27;;;476.87;;
3000;SDS011;1510;51.072;6.678;2024-02-14T04:19:54;488.70;;;468.03;;
3000;SDS011;1510;51.072;6.678;2024-02-14T04:22:21;507.87;;;485.77;;
3000;SDS011;1510;51.072;6.678;2024-02-14T04:24:49;504.97;;;482.50;;
3000;SDS011;1510;51.072;6.678;2024-02-14T04:27:16;508.13;;;484.90;;
3000;SDS011;1510;51.072;6.678;2024-02-14T04:29:45;509.47;;;486.37;;
3000;SDS011;1510;51.072;6.678;2024-02-14T04:32:12;505.57;;;483.13;;
3000;SDS011;1510;51.072;6.678;2024-02-14T04:34:39;500.73;;;477.43;;
3000;SDS011;1510;51.072;6.678;2024-02-14T04:37:07;492.87;;;470.70;;
3000;SDS011;1510;51.072;6.678;2024-02-14T04:42:36;504.73;;;482.30;;
3000;SDS011;1510;51.072;6.678;2024-02-14T04:45:03;499.90;;;477.97;;
3000;SDS011;1510;51.072;6.678;2024-02-14T04:47:30;487.93;;;466.87;;
3000;SDS011;1510;51.072;6.678;2024-02-14T04:49:57;477.10;;;456.90;;
3000;SDS011;1510;51.072;6.678;2024-02-14T04:52:24;469.00;;;449.60;;
3000;SDS011;1510;51.072;6.678;2024-02-14T04:54:51;440.70;;;422.97;;
3000;SDS011;1510;51.072;6.678;2024-02-14T04:57:20;433.97;;;416.80;;
3000;SDS011;1510;51.072;6.678;2024-02-14T04:59:46;413.83;;;397.60;;
3000;SDS011;1510;51.072;6.678;2024-02-14T05:02:13;411.77;;;395.80;;
3000;SDS011;1510;51.072;6.678;2024-02-14T05:04:40;386.57;;;371.70;;
3000;SDS011;1510;51.072;6.678;2024-02-14T05:07:07;383.10;;;367.90;;
3000;SDS011;1510;51.072;6.678;2024-02-14T05:09:34;396.10;;;380.57;;
3000;SDS011;1510;51.072;6.678;2024-02-14T05:12:01;428.67;;;411.40;;
3000;SDS011;1510;51.072;6.678;2024-02-14T05:14:30;484.50;;;463.63;;
3000;SDS011;1510;51.072;6.678;2024-02-14T05:16:56;494.07;;;470.97;;
3000;SDS011;1510;51.072;6.678;2024-02-14T05:19:26;513.33;;;485.63;;
3000;SDS011;1510;51.072;6.678;2024-02-14T05:21:54;514.90;;;483.60;;
3000;SDS011;1510;51.072;6.678;2024-02-14T05:24:21;509.90;;;477.50;;
3000;SDS011;1510;51.072;6.678;2024-02-14T05:26:47;499.23;;;468.23;;
3000;SDS011;1510;51.072;6.678;2024-02-14T05:29:15;509.23;;;476.67;;
3000;SDS011;1510;51.072;6.678;2024-02-14T05:31:45;515.20;;;480.10;;
3000;SDS011;1510;51.072;6.678;2024-02-14T05:34:13;509.07;;;474.37;;
3000;SDS011;1510;51.072;6.678;2024-02-14T05:36:40;507.57;;;473.97;;
3000;SDS011;1510;51.072;6.678;2024-02-14T05:39:07;507.37;;;474.70;;
3000;SDS011;1510;51.072;6.678;2024-02-14T05:41:34;511.90;;;479.50;;
3000;SDS011;1510;51.072;6.678;2024-02-14T05:44:01;512.60;;;481.87;;
3000;SDS011;1510;51.072;6.678;2024-02-14T05:46:28;509.90;;;479.10;;
3000;SDS011;1510;51.072;6.678;2024-02-14T05:48:56;510.03;;;477.93;;
3000;SDS011;1510;51.072;6.678;2024-02-14T05:51:23;510.97;;;478.57;;
3000;SDS011;1510;51.072;6.678;2024-02-14T05:53:50;516.33;;;483.87;;
3000;SDS011;1510;51.072;6.678;2024-02-14T05:56:17;511.90;;;480.13;;
3000;SDS011;1510;51.072;6.678;2024-02-14T05:58:43;505.23;;;473.03;;
3000;SDS011;1510;51.072;6.678;2024-02-14T06:01:10;495.73;;;464.03;;
3000;SDS011;1510;51.072;6.678;2024-02-14T06:03:37;501.43;;;468.33;;
3000;SDS011;1510;51.072;6.678;2024-02-14T06:06:05;499.93;;;468.17;;
3000;SDS011;1510;51.072;6.678;2024-02-14T06:08:32;505.23;;;472.70;;
3000;SDS011;1510;51.072;6.678;2024-02-14T06:10:59;495.33;;;462.90;;
3000;SDS011;1510;51.072;6.678;2024-02-14T06:13:26;491.33;;;459.60;;
3000;SDS011;1510;51.072;6.678;2024-02-14T06:15:52;499.13;;;467.97;;
3000;SDS011;1510;51.072;6.678;2024-02-14T06:18:19;504.30;;;473.80;;
3000;SDS011;1510;51.072;6.678;2024-02-14T06:20:46;504.60;;;474.07;;
3000;SDS011;1510;51.072;6.678;2024-02-14T06:23:14;498.27;;;469.17;;
3000;SDS011;1510;51.072;6.678;2024-02-14T06:25:41;493.80;;;466.03;;
3000;SDS011;1510;51.072;6.678;2024-02-14T06:28:08;494.47;;;466.57;;
3000;SDS011;1510;51.072;6.678;2024-02-14T06:30:35;488.70;;;462.03;;
3000;SDS011;1510;51.072;6.678;2024-02-14T06:33:02;483.90;;;457.90;;
3000;SDS011;1510;51.072;6.678;2024-02-14T06:35:29;477.13;;;451.00;;
3000;SDS011;1510;51.072;6.678;2024-02-14T06:37:56;483.27;;;457.03;;
3000;SDS011;1510;51.072;6.678;2024-02-14T06:40:25;481.10;;;455.20;;
3000;SDS011;1510;51.072;6.678;2024-02-14T06:42:52;488.10;;;462.40;;
3000;SDS011;1510;51.072;6.678;2024-02-14T06:45:19;489.30;;;463.90;;
3000;SDS011;1510;51.072;6.678;2024-02-14T06:47:46;487.90;;;462.77;;
3000;SDS011;1510;51.072;6.678;2024-02-14T06:50:13;482.10;;;457.80;;
3000;SDS011;1510;51.072;6.678;2024-02-14T06:52:40;480.80;;;457.10;;
3000;SDS011;1510;51.072;6.678;2024-02-14T06:55:07;476.70;;;453.80;;
3000;SDS011;1510;51.072;6.678;2024-02-14T06:57:35;481.83;;;458.67;;
3000;SDS011;1510;51.072;6.678;2024-02-14T07:00:02;485.37;;;461.80;;
3000;SDS011;1510;51.072;6.678;2024-02-14T07:02:31;486.53;;;463.20;;
3000;SDS011;1510;51.072;6.678;2024-02-14T07:04:58;489.90;;;466.10;;
3000;SDS011;1510;51.072;6.678;2024-02-14T07:07:25;488.87;;;465.47;;
3000;SDS011;1510;51.072;6.678;2024-02-14T07:09:52;471.47;;;449.30;;
3000;SDS011;1510;51.072;6.678;2024-02-14T07:12:19;471.30;;;449.77;;
3000;SDS011;1510;51.072;6.678;2024-02-14T07:14:47;461.37;;;440.87;;
3000;SDS011;1510;51.072;6.678;2024-02-14T07:17:13;453.87;;;434.17;;
3000;SDS011;1510;51.072;6.678;2024-02-14T07:19:40;438.30;;;419.83;;
3000;SDS011;1510;51.072;6.678;2024-02-14T07:22:08;434.50;;;416.60;;
3000;SDS011;1510;51.072;6.678;2024-02-14T07:24:35;417.27;;;399.97;;
3000;SDS011;1510;51.072;6.678;2024-02-14T07:27:02;399.53;;;383.50;;
3000;SDS011;1510;51.072;6.678;2024-02-14T07:29:29;380.63;;;365.63;;
3000;SDS011;1510;51.072;6.678;2024-02-14T07:31:58;374.50;;;359.80;;
3000;SDS011;1510;51.072;6.678;2024-02-14T07:34:27;369.03;;;354.73;;
3000;SDS011;1510;51.072;6.678;2024-02-14T07:36:54;358.70;;;344.50;;
3000;SDS011;1510;51.072;6.678;2024-02-14T07:39:21;347.13;;;333.77;;
3000;SDS011;1510;51.072;6.678;2024-02-14T07:41:48;339.47;;;326.67;;
3000;SDS011;1510;51.072;6.678;2024-02-14T07:44:14;339.67;;;326.90;;
3000;SDS011;1510;51.072;6.678;2024-02-14T07:46:42;338.97;;;325.67;;
3000;SDS011;1510;51.072;6.678;2024-02-14T07:49:10;328.80;;;316.87;;
3000;SDS011;1510;51.072;6.678;2024-02-14T07:51:36;296.83;;;286.23;;
3000;SDS011;1510;51.072;6.678;2024-02-14T07:54:04;289.90;;;279.07;;
3000;SDS011;1510;51.072;6.678;2024-02-14T07:56:31;275.07;;;265.57;;
3000;SDS011;1510;51.072;6.678;2024-02-14T07:58:58;255.60;;;247.00;;
3000;SDS011;1510;51.072;6.678;2024-02-14T08:01:25;233.27;;;225.47;;
3000;SDS011;1510;51.072;6.678;2024-02-14T08:03:53;209.10;;;201.80;;
3000;SDS011;1510;51.072;6.678;2024-02-14T08:06:21;190.40;;;183.90;;
3000;SDS011;1510;51.072;6.678;2024-02-14T08:08:48;169.00;;;163.30;;
3000;SDS011;1510;51.072;6.678;2024-02-14T08:11:17;164.53;;;158.50;;
3000;SDS011;1510;51.072;6.678;2024-02-14T08:13:44;150.60;;;145.40;;
3000;SDS011;1510;51.072;6.678;2024-02-14T08:16:11;143.80;;;138.77;;
3000;SDS011;1510;51.072;6.678;2024-02-14T08:18:37;131.73;;;127.33;;
3000;SDS011;1510;51.072;6.678;2024-02-14T08:21:06;116.27;;;112.07;;
3000;SDS011;1510;51.072;6.678;2024-02-14T08:23:34;103.17;;;99.40;;
3000;SDS011;1510;51.072;6.678;2024-02-14T08:26:01;86.97;;;83.83;;
3000;SDS011;1510;51.072;6.678;2024-02-14T08:28:35;73.63;;;70.67;;
3000;SDS011;1510;51.072;6.678;2024-02-14T08:31:02;70.20;;;67.30;;
3000;SDS011;1510;51.072;6.678;2024-02-14T08:33:28;63.17;;;60.17;;
3000;SDS011;1510;51.072;6.678;2024-02-14T08:35:55;74.87;;;71.77;;
3000;SDS011;1510;51.072;6.678;2024-02-14T08:38:22;72.87;;;70.03;;
3000;SDS011;1510;51.072;6.678;2024-02-14T08:40:50;70.77;;;68.00;;
3000;SDS011;1510;51.072;6.678;2024-02-14T08:43:17;48.03;;;45.70;;
3000;SDS011;1510;51.072;6.678;2024-02-14T08:45:44;30.07;;;27.70;;
3000;SDS011;1510;51.072;6.678;2024-02-14T08:48:10;20.30;;;18.80;;
3000;SDS011;1510;51.072;6.678;2024-02-14T08:50:37;19.67;;;18.47;;
3000;SDS011;1510;51.072;6.678;2024-02-14T08:53:04;14.07;;;13.07;;
3000;SDS011;1510;51.072;6.678;2024-02-14T08:55:31;12.20;;;11.20;;
3000;SDS011;1510;51.072;6.678;2024-02-14T08:58:01;10.30;;;9.50;;
3000;SDS011;1510;51.072;6.678;2024-02-14T09:00:28;7.87;;;7.17;;
3000;SDS011;1510;51.072;6.678;2024-02-14T09:02:55;7.53;;;6.83;;
3000;SDS011;1510;51.072;6.678;2024-02-14T09:05:25;10.40;;;5.30;;
3000;SDS011;1510;51.072;6.678;2024-02-14T09:07:52;8.37;;;6.00;;
3000;SDS011;1510;51.072;6.678;2024-02-14T09:10:19;8.27;;;4.90;;
3000;SDS011;1510;51.072;6.678;2024-02-14T09:12:46;10.53;;;4.57;;
3000;SDS011;1510;51.072;6.678;2024-02-14T09:15:14;5.83;;;4.10;;
3000;SDS011;1510;51.072;6.678;2024-02-14T09:17:41;6.70;;;3.63;;
3000;SDS011;1510;51.072;6.678;2024-02-14T09:20:08;10.67;;;4.10;;
3000;SDS011;1510;51.072;6.678;2024-02-14T09:22:39;8.20;;;3.47;;
3000;SDS011;1510;51.072;6.678;2024-02-14T09:25:07;8.85;;;4.00;;
3000;SDS011;1510;51.072;6.678;2024-02-14T09:27:34;7.47;;;2.53;;
3000;SDS011;1510;51.072;6.678;2024-02-14T09:30:01;6.10;;;2.30;;
3000;SDS011;1510;51.072;6.678;2024-02-14T09:32:31;8.70;;;2.63;;
3000;SDS011;1510;51.072;6.678;2024-02-14T09:34:58;5.97;;;2.70;;
3000;SDS011;1510;51.072;6.678;2024-02-14T09:37:25;6.03;;;3.50;;
3000;SDS011;1510;51.072;6.678;2024-02-14T09:39:53;6.10;;;2.30;;
3000;SDS011;1510;51.072;6.678;2024-02-14T09:42:22;6.20;;;2.60;;
3000;SDS011;1510;51.072;6.678;2024-02-14T09:44:56;6.20;;;2.30;;
3000;SDS011;1510;51.072;6.678;2024-02-14T09:47:25;6.63;;;2.50;;
3000;SDS011;1510;51.072;6.678;2024-02-14T09:49:58;4.60;;;1.90;;
3000;SDS011;1510;51.072;6.678;2024-02-14T09:52:28;9.07;;;2.77;;
3000;SDS011;1510;51.072;6.678;2024-02-14T09:54:58;5.07;;;2.10;;
3000;SDS011;1510;51.072;6.678;2024-02-14T09:57:25;15.83;;;2.53;;
3000;SDS011;1510;51.072;6.678;2024-02-14T09:59:53;8.30;;;2.40;;
3000;SDS011;1510;51.072;6.678;2024-02-14T10:02:22;5.20;;;2.47;;
3000;SDS011;1510;51.072;6.678;2024-02-14T10:04:50;7.20;;;2.33;;
3000;SDS011;1510;51.072;6.678;2024-02-14T10:07:17;8.17;;;3.00;;
3000;SDS011;1510;51.072;6.678;2024-02-14T10:09:44;6.80;;;2.90;;
3000;SDS011;1510;51.072;6.678;2024-02-14T10:12:11;6.57;;;2.87;;
3000;SDS011;1510;51.072;6.678;2024-02-14T10:14:38;6.63;;;3.13;;
3000;SDS011;1510;51.072;6.678;2024-02-14T10:17:05;6.80;;;3.00;;
3000;SDS011;1510;51.072;6.678;2024-02-14T10:19:33;5.13;;;2.60;;
3000;SDS011;1510;51.072;6.678;2024-02-14T10:22:01;8.60;;;3.20;;
3000;SDS011;1510;51.072;6.678;2024-02-14T10:24:30;6.27;;;2.73;;
3000;SDS011;1510;51.072;6.678;2024-02-14T10:26:58;5.97;;;2.80;;
3000;SDS011;1510;51.072;6.678;2024-02-14T10:29:25;5.10;;;2.50;;
3000;SDS011;1510;51.072;6.678;2024-02-14T10:31:53;10.00;;;3.57;;
3000;SDS011;1510;51.072;6.678;2024-02-14T10:34:20;5.17;;;2.60;;
3000;SDS011;1510;51.072;6.678;2024-02-14T10:36:50;6.03;;;2.40;;
3000;SDS011;1510;51.072;6.678;2024-02-14T10:39:21;5.67;;;2.57;;
3000;SDS011;1510;51.072;6.678;2024-02-14T10:41:51;6.93;;;2.50;;
3000;SDS011;1510;51.072;6.678;2024-02-14T10:44:18;7.50;;;2.47;;
3000;SDS011;1510;51.072;6.678;2024-02-14T10:46:45;7.00;;;3.40;;
3000;SDS011;1510;51.072;6.678;2024-02-14T10:49:15;5.97;;;4.93;;
3000;SDS011;1510;51.072;6.678;2024-02-14T10:51:42;7.63;;;6.93;;
3000;SDS011;1510;51.072;6.678;2024-02-14T10:54:13;9.00;;;8.30;;
3000;SDS011;1510;51.072;6.678;2024-02-14T10:56:45;13.33;;;12.10;;
3000;SDS011;1510;51.072;6.678;2024-02-14T10:59:17;17.60;;;16.57;;
3000;SDS011;1510;51.072;6.678;2024-02-14T11:01:46;16.40;;;15.40;;
3000;SDS011;1510;51.072;6.678;2024-02-14T11:04:13;9.93;;;9.20;;
3000;SDS011;1510;51.072;6.678;2024-02-14T11:06:44;10.17;;;9.30;;
3000;SDS011;1510;51.072;6.678;2024-02-14T11:09:12;8.27;;;7.33;;
3000;SDS011;1510;51.072;6.678;2024-02-14T11:11:40;5.97;;;5.37;;
3000;SDS011;1510;51.072;6.678;2024-02-14T11:14:10;11.70;;;5.20;;
3000;SDS011;1510;51.072;6.678;2024-02-14T11:16:40;5.20;;;3.30;;
3000;SDS011;1510;51.072;6.678;2024-02-14T11:19:07;7.15;;;3.95;;
3000;SDS011;1510;51.072;6.678;2024-02-14T11:21:35;6.63;;;3.50;;
3000;SDS011;1510;51.072;6.678;2024-02-14T11:24:07;5.22;;;3.22;;
3000;SDS011;1510;51.072;6.678;2024-02-14T11:26:38;8.73;;;3.10;;
3000;SDS011;1510;51.072;6.678;2024-02-14T11:29:05;9.03;;;2.50;;
3000;SDS011;1510;51.072;6.678;2024-02-14T11:31:34;8.67;;;2.00;;
3000;SDS011;1510;51.072;6.678;2024-02-14T11:34:03;6.80;;;2.00;;
3000;SDS011;1510;51.072;6.678;2024-02-14T11:36:31;4.70;;;1.40;;
3000;SDS011;1510;51.072;6.678;2024-02-14T11:39:01;7.73;;;1.80;;
3000;SDS011;1510;51.072;6.678;2024-02-14T11:41:29;4.90;;;2.40;;
3000;SDS011;1510;51.072;6.678;2024-02-14T11:44:00;7.37;;;2.30;;
3000;SDS011;1510;51.072;6.678;2024-02-14T11:46:29;5.93;;;2.60;;
3000;SDS011;1510;51.072;6.678;2024-02-14T11:48:58;6.37;;;3.00;;
3000;SDS011;1510;51.072;6.678;2024-02-14T11:51:26;6.67;;;3.57;;
3000;SDS011;1510;51.072;6.678;2024-02-14T11:53:53;8.93;;;4.47;;
3000;SDS011;1510;51.072;6.678;2024-02-14T11:56:20;7.40;;;3.80;;
3000;SDS011;1510;51.072;6.678;2024-02-14T11:58:48;6.67;;;3.40;;
3000;SDS011;1510;51.072;6.678;2024-02-14T12:01:16;5.47;;;3.20;;
3000;SDS011;1510;51.072;6.678;2024-02-14T12:03:43;6.77;;;4.13;;
3000;SDS011;1510;51.072;6.678;2024-02-14T12:06:12;5.00;;;3.67;;
3000;SDS011;1510;51.072;6.678;2024-02-14T12:08:40;11.47;;;5.00;;
3000;SDS011;1510;51.072;6.678;2024-02-14T12:11:07;5.20;;;4.70;;
3000;SDS011;1510;51.072;6.678;2024-02-14T12:13:35;5.13;;;4.63;;
3000;SDS011;1510;51.072;6.678;2024-02-14T12:16:08;7.83;;;7.27;;
3000;SDS011;1510;51.072;6.678;2024-02-14T12:18:36;20.33;;;19.23;;
3000;SDS011;1510;51.072;6.678;2024-02-14T12:21:05;63.30;;;60.90;;
3000;SDS011;1510;51.072;6.678;2024-02-14T12:23:34;146.57;;;141.63;;
3000;SDS011;1510;51.072;6.678;2024-02-14T12:26:02;174.53;;;168.50;;
3000;SDS011;1510;51.072;6.678;2024-02-14T12:28:30;190.50;;;184.13;;
3000;SDS011;1510;51.072;6.678;2024-02-14T12:30:57;178.63;;;172.80;;
3000;SDS011;1510;51.072;6.678;2024-02-14T12:33:25;187.57;;;181.50;;
3000;SDS011;1510;51.072;6.678;2024-02-14T12:35:53;223.20;;;216.00;;
3000;SDS011;1510;51.072;6.678;2024-02-14T12:38:21;199.90;;;193.30;;
3000;SDS011;1510;51.072;6.678;2024-02-14T12:40:50;133.70;;;129.03;;
3000;SDS011;1510;51.072;6.678;2024-02-14T12:43:19;156.03;;;150.87;;
3000;SDS011;1510;51.072;6.678;2024-02-14T12:45:46;115.23;;;111.43;;
3000;SDS011;1510;51.072;6.678;2024-02-14T12:48:21;157.90;;;152.70;;
3000;SDS011;1510;51.072;6.678;2024-02-14T12:50:49;77.40;;;74.53;;
3000;SDS011;1510;51.072;6.678;2024-02-14T12:53:17;77.00;;;74.27;;
3000;SDS011;1510;51.072;6.678;2024-02-14T12:55:44;42.47;;;40.60;;
3000;SDS011;1510;51.072;6.678;2024-02-14T12:58:13;24.50;;;23.20;;
3000;SDS011;1510;51.072;6.678;2024-02-14T13:00:41;18.17;;;17.27;;
3000;SDS011;1510;51.072;6.678;2024-02-14T13:03:09;22.10;;;21.07;;
3000;SDS011;1510;51.072;6.678;2024-02-14T13:05:36;18.60;;;17.70;;
3000;SDS011;1510;51.072;6.678;2024-02-14T13:08:04;28.50;;;27.27;;
3000;SDS011;1510;51.072;6.678;2024-02-14T13:10:31;32.20;;;30.60;;
3000;SDS011;1510;51.072;6.678;2024-02-14T13:12:59;46.80;;;45.00;;
3000;SDS011;1510;51.072;6.678;2024-02-14T13:15:27;58.50;;;55.97;;
3000;SDS011;1510;51.072;6.678;2024-02-14T13:17:54;52.77;;;50.47;;
3000;SDS011;1510;51.072;6.678;2024-02-14T13:20:23;50.53;;;48.43;;
3000;SDS011;1510;51.072;6.678;2024-02-14T13:22:50;62.97;;;60.27;;
3000;SDS011;1510;51.072;6.678;2024-02-14T13:25:17;54.30;;;52.07;;
3000;SDS011;1510;51.072;6.678;2024-02-14T13:27:44;43.60;;;41.80;;
3000;SDS011;1510;51.072;6.678;2024-02-14T13:30:11;46.10;;;43.90;;
3000;SDS011;1510;51.072;6.678;2024-02-14T13:32:39;64.37;;;61.43;;
3000;SDS011;1510;51.072;6.678;2024-02-14T13:35:07;102.27;;;98.10;;
3000;SDS011;1510;51.072;6.678;2024-02-14T13:37:36;182.13;;;175.83;;
3000;SDS011;1510;51.072;6.678;2024-02-14T13:40:03;202.87;;;196.23;;
3000;SDS011;1510;51.072;6.678;2024-02-14T13:42:35;297.33;;;287.33;;
3000;SDS011;1510;51.072;6.678;2024-02-14T13:45:03;297.50;;;287.60;;
3000;SDS011;1510;51.072;6.678;2024-02-14T13:47:30;398.00;;;382.83;;
3000;SDS011;1510;51.072;6.678;2024-02-14T13:49:59;487.23;;;468.17;;
3000;SDS011;1510;51.072;6.678;2024-02-14T13:52:26;617.03;;;593.23;;
3000;SDS011;1510;51.072;6.678;2024-02-14T13:54:53;661.77;;;635.10;;
3000;SDS011;1510;51.072;6.678;2024-02-14T13:57:19;646.73;;;619.97;;
3000;SDS011;1510;51.072;6.678;2024-02-14T13:59:46;695.60;;;664.93;;
3000;SDS011;1510;51.072;6.678;2024-02-14T14:02:13;706.85;;;667.95;;
3000;SDS011;1510;51.072;6.678;2024-02-14T14:04:40;694.70;;;658.00;;
3000;SDS011;1510;51.072;6.678;2024-02-14T14:07:08;709.20;;;675.70;;
3000;SDS011;1510;51.072;6.678;2024-02-14T14:09:34;733.43;;;696.93;;
3000;SDS011;1510;51.072;6.678;2024-02-14T14:12:02;741.27;;;704.10;;
3000;SDS011;1510;51.072;6.678;2024-02-14T14:14:29;729.13;;;692.00;;
3000;SDS011;1510;51.072;6.678;2024-02-14T14:16:56;751.50;;;710.00;;
3000;SDS011;1510;51.072;6.678;2024-02-14T14:19:23;774.03;;;728.97;;
3000;SDS011;1510;51.072;6.678;2024-02-14T14:21:50;797.73;;;749.97;;
3000;SDS011;1510;51.072;6.678;2024-02-14T14:24:18;816.50;;;765.77;;
3000;SDS011;1510;51.072;6.678;2024-02-14T14:26:45;906.47;;;849.70;;
3000;SDS011;1510;51.072;6.678;2024-02-14T14:29:13;913.50;;;858.30;;
3000;SDS011;1510;51.072;6.678;2024-02-14T14:31:40;992.07;;;927.97;;
3000;SDS011;1510;51.072;6.678;2024-02-14T14:34:07;1017.57;;;950.73;;
3000;SDS011;1510;51.072;6.678;2024-02-14T14:36:34;1027.97;;;958.70;;
3000;SDS011;1510;51.072;6.678;2024-02-14T14:39:02;1050.43;;;976.47;;
3000;SDS011;1510;51.072;6.678;2024-02-14T14:41:30;1027.93;;;955.97;;
3000;SDS011;1510;51.072;6.678;2024-02-14T14:43:57;1071.13;;;993.87;;